createdAt,value
2022-12-19T00:00:05.161Z,99.99
2022-12-19T00:01:05.181Z,99.99
2022-12-19T00:02:05.233Z,99.99
2022-12-19T00:03:05.298Z,99.99
2022-12-19T00:04:08.346Z,99.99
2022-12-19T00:05:05.089Z,99.99
2022-12-19T00:06:05.090Z,99.99
2022-12-19T00:07:05.080Z,99.99
2022-12-19T00:08:13.955Z,99.99
2022-12-19T00:09:06.042Z,99.99
2022-12-19T00:10:05.061Z,99.99
2022-12-19T00:11:05.024Z,99.99
2022-12-19T00:12:05.030Z,99.99
2022-12-19T00:13:04.994Z,99.99
2022-12-19T00:14:05.011Z,99.99
2022-12-19T00:15:04.982Z,99.99
2022-12-19T00:16:05.053Z,99.99
2022-12-19T00:17:05.071Z,99.99
2022-12-19T00:18:04.952Z,99.99
2022-12-19T00:19:04.942Z,99.99
2022-12-19T00:20:04.935Z,99.99
2022-12-19T00:21:05.356Z,99.99
2022-12-19T00:22:09.637Z,99.99
2022-12-19T00:23:05.901Z,99.99
2022-12-19T00:24:09.827Z,99.99
2022-12-19T00:25:05.894Z,99.99
2022-12-19T00:26:04.879Z,99.99
2022-12-19T00:27:04.864Z,99.99
2022-12-19T00:28:04.954Z,99.99
2022-12-19T00:29:07.618Z,99.99
2022-12-19T00:30:05.845Z,99.99
2022-12-19T00:31:04.891Z,99.99
2022-12-19T00:32:04.894Z,99.99
2022-12-19T00:33:04.797Z,99.99
2022-12-19T00:34:04.906Z,99.99
2022-12-19T00:35:04.797Z,99.99
2022-12-19T00:36:04.815Z,99.99
2022-12-19T00:37:04.756Z,99.99
2022-12-19T00:38:04.754Z,99.99
2022-12-19T00:39:07.764Z,99.99
2022-12-19T00:40:04.949Z,99.99
2022-12-19T00:41:04.715Z,99.99
2022-12-19T00:42:04.717Z,99.99
2022-12-19T00:43:04.698Z,99.99
2022-12-19T00:44:04.718Z,99.99
2022-12-19T00:45:04.685Z,99.99
2022-12-19T00:46:04.706Z,99.99
2022-12-19T00:47:04.679Z,99.99
2022-12-19T00:48:04.657Z,99.99
2022-12-19T00:49:04.638Z,99.99
2022-12-19T00:50:04.706Z,99.99
2022-12-19T00:51:04.624Z,99.99
2022-12-19T00:52:04.616Z,99.99
2022-12-19T00:53:04.603Z,99.99
2022-12-19T00:54:05.482Z,99.99
2022-12-19T00:55:07.629Z,99.99
2022-12-19T00:56:05.590Z,99.99
2022-12-19T00:57:04.569Z,99.99
2022-12-19T00:58:04.560Z,99.99
2022-12-19T00:59:04.541Z,99.99
2022-12-19T01:00:04.538Z,99.99
2022-12-19T01:01:04.557Z,99.99
2022-12-19T01:02:04.662Z,99.99
2022-12-19T01:03:05.665Z,99.99
2022-12-19T01:04:28.063Z,99.99
2022-12-19T01:05:05.470Z,99.99
2022-12-19T01:06:04.485Z,99.99
2022-12-19T01:07:04.545Z,99.99
2022-12-19T01:08:04.504Z,99.99
2022-12-19T01:09:04.457Z,99.99
2022-12-19T01:10:04.440Z,99.99
2022-12-19T01:11:04.435Z,99.99
2022-12-19T01:12:04.414Z,99.99
2022-12-19T01:13:04.394Z,99.99
2022-12-19T01:14:04.409Z,99.99
2022-12-19T01:15:05.372Z,99.99
2022-12-19T01:16:04.678Z,99.99
2022-12-19T01:17:04.358Z,99.99
2022-12-19T01:18:04.370Z,99.99
2022-12-19T01:19:04.342Z,99.99
2022-12-19T01:20:04.392Z,99.99
2022-12-19T01:21:04.322Z,99.99
2022-12-19T01:22:04.312Z,99.99
2022-12-19T01:23:04.305Z,99.99
2022-12-19T01:24:04.315Z,99.99
2022-12-19T01:25:04.283Z,99.99
2022-12-19T01:26:04.284Z,99.99
2022-12-19T01:27:04.273Z,99.99
2022-12-19T01:28:04.272Z,99.99
2022-12-19T01:29:05.054Z,99.99
2022-12-19T01:30:04.233Z,99.99
2022-12-19T01:31:04.232Z,99.99
2022-12-19T01:32:04.259Z,99.99
2022-12-19T01:33:04.205Z,99.99
2022-12-19T01:34:04.204Z,99.99
2022-12-19T01:35:04.195Z,99.99
2022-12-19T01:36:04.165Z,99.99
2022-12-19T01:37:04.196Z,99.99
2022-12-19T01:38:08.628Z,99.99
2022-12-19T01:39:04.142Z,99.99
2022-12-19T01:40:04.141Z,99.99
2022-12-19T01:41:04.125Z,99.99
2022-12-19T01:42:04.125Z,99.99
2022-12-19T01:43:04.095Z,99.99
2022-12-19T01:44:04.118Z,99.99
2022-12-19T01:45:04.126Z,99.99
2022-12-19T01:46:04.153Z,99.99
2022-12-19T01:47:04.066Z,99.99
2022-12-19T01:48:04.058Z,99.99
2022-12-19T01:49:04.038Z,99.99
2022-12-19T01:50:04.091Z,99.99
2022-12-19T01:51:04.052Z,99.99
2022-12-19T01:52:04.022Z,99.99
2022-12-19T01:53:03.997Z,99.99
2022-12-19T01:54:04.037Z,99.99
2022-12-19T01:55:04.017Z,99.99
2022-12-19T01:56:07.674Z,99.99
2022-12-19T01:57:03.934Z,99.99
2022-12-19T01:58:03.967Z,99.99
2022-12-19T01:59:06.311Z,99.99
2022-12-19T02:00:03.918Z,99.99
2022-12-19T02:01:03.949Z,99.99
2022-12-19T02:02:04.172Z,99.99
2022-12-19T02:03:03.930Z,99.99
2022-12-19T02:04:03.886Z,99.99
2022-12-19T02:05:03.858Z,99.99
2022-12-19T02:06:03.856Z,99.99
2022-12-19T02:07:15.451Z,99.99
2022-12-19T02:08:04.830Z,99.99
2022-12-19T02:09:03.810Z,99.99
2022-12-19T02:10:03.810Z,99.99
2022-12-19T02:11:03.793Z,99.99
2022-12-19T02:12:03.810Z,99.99
2022-12-19T02:13:03.783Z,99.99
2022-12-19T02:14:03.771Z,99.99
2022-12-19T02:15:03.802Z,99.99
2022-12-19T02:16:03.764Z,99.99
2022-12-19T02:17:03.741Z,99.99
2022-12-19T02:18:04.018Z,99.99
2022-12-19T02:19:03.714Z,99.99
2022-12-19T02:20:03.704Z,99.99
2022-12-19T02:21:03.717Z,99.99
2022-12-19T02:22:03.695Z,99.99
2022-12-19T02:23:03.676Z,99.99
2022-12-19T02:24:03.692Z,99.99
2022-12-19T02:25:03.653Z,99.99
2022-12-19T02:26:03.671Z,99.99
2022-12-19T02:27:03.661Z,99.99
2022-12-19T02:28:03.645Z,99.99
2022-12-19T02:29:03.629Z,99.99
2022-12-19T02:30:03.611Z,99.99
2022-12-19T02:31:04.026Z,99.99
2022-12-19T02:32:04.654Z,99.99
2022-12-19T02:33:03.578Z,99.99
2022-12-19T02:34:03.684Z,99.99
2022-12-19T02:35:03.575Z,99.99
2022-12-19T02:36:03.653Z,99.99
2022-12-19T02:37:03.536Z,99.99
2022-12-19T02:38:05.719Z,99.99
2022-12-19T02:39:03.593Z,99.99
2022-12-19T02:40:03.527Z,99.99
2022-12-19T02:41:03.519Z,99.99
2022-12-19T02:42:03.514Z,99.99
2022-12-19T02:43:03.482Z,99.99
2022-12-19T02:44:03.488Z,99.99
2022-12-19T02:45:03.513Z,99.99
2022-12-19T02:46:03.540Z,99.99
2022-12-19T02:47:03.459Z,99.99
2022-12-19T02:48:08.630Z,99.99
2022-12-19T02:49:04.433Z,99.99
2022-12-19T02:50:03.424Z,99.99
2022-12-19T02:51:03.408Z,99.99
2022-12-19T02:52:03.415Z,99.99
2022-12-19T02:53:03.392Z,99.99
2022-12-19T02:54:03.414Z,99.99
2022-12-19T02:55:03.377Z,99.99
2022-12-19T02:56:03.386Z,99.99
2022-12-19T02:57:04.337Z,99.99
2022-12-19T02:58:03.378Z,99.99
2022-12-19T02:59:03.342Z,99.99
2022-12-19T03:00:03.425Z,99.99
2022-12-19T03:01:03.384Z,99.99
2022-12-19T03:02:03.463Z,99.99
2022-12-19T03:03:03.500Z,99.99
2022-12-19T03:04:03.283Z,99.99
2022-12-19T03:05:03.283Z,99.99
2022-12-19T03:06:03.265Z,99.99
2022-12-19T03:07:03.245Z,99.99
2022-12-19T03:08:03.247Z,99.99
2022-12-19T03:09:03.243Z,99.99
2022-12-19T03:10:03.232Z,99.99
2022-12-19T03:11:03.208Z,99.99
2022-12-19T03:12:03.210Z,99.99
2022-12-19T03:13:03.189Z,99.99
2022-12-19T03:14:03.228Z,99.99
2022-12-19T03:15:03.180Z,99.99
2022-12-19T03:16:03.160Z,99.99
2022-12-19T03:17:03.208Z,99.99
2022-12-19T03:18:03.158Z,99.99
2022-12-19T03:19:03.133Z,99.99
2022-12-19T03:20:03.131Z,99.99
2022-12-19T03:21:03.112Z,99.99
2022-12-19T03:22:03.113Z,99.99
2022-12-19T03:23:03.155Z,99.99
2022-12-19T03:24:03.095Z,99.99
2022-12-19T03:25:03.065Z,99.99
2022-12-19T03:26:03.074Z,99.99
2022-12-19T03:27:03.261Z,99.99
2022-12-19T03:28:03.368Z,99.99
2022-12-19T03:29:03.034Z,99.99
2022-12-19T03:30:03.040Z,99.99
2022-12-19T03:31:03.078Z,99.99
2022-12-19T03:32:03.022Z,99.99
2022-12-19T03:33:02.995Z,99.99
2022-12-19T03:34:03.005Z,99.99
2022-12-19T03:35:03.008Z,99.99
2022-12-19T03:36:02.963Z,99.99
2022-12-19T03:37:02.952Z,99.99
2022-12-19T03:38:03.078Z,99.99
2022-12-19T03:39:02.946Z,99.99
2022-12-19T03:40:02.922Z,99.99
2022-12-19T03:41:02.943Z,99.99
2022-12-19T03:42:02.912Z,99.99
2022-12-19T03:43:02.891Z,99.99
2022-12-19T03:44:02.883Z,99.99
2022-12-19T03:45:02.871Z,99.99
2022-12-19T03:46:02.914Z,99.99
2022-12-19T03:47:02.853Z,99.99
2022-12-19T03:48:02.843Z,99.99
2022-12-19T03:49:02.822Z,99.99
2022-12-19T03:50:03.614Z,99.99
2022-12-19T03:51:02.816Z,99.99
2022-12-19T03:52:02.803Z,99.99
2022-12-19T03:53:02.811Z,99.99
2022-12-19T03:54:02.783Z,99.99
2022-12-19T03:55:02.784Z,99.99
2022-12-19T03:56:02.771Z,99.99
2022-12-19T03:57:02.749Z,99.99
2022-12-19T03:58:02.746Z,99.99
2022-12-19T03:59:02.775Z,99.99
2022-12-19T04:00:02.710Z,99.99
2022-12-19T04:01:02.766Z,99.99
2022-12-19T04:02:02.801Z,99.99
2022-12-19T04:03:02.741Z,99.99
2022-12-19T04:04:02.677Z,99.99
2022-12-19T04:05:02.661Z,99.99
2022-12-19T04:06:02.651Z,99.99
2022-12-19T04:07:02.657Z,99.99
2022-12-19T04:08:02.675Z,99.99
2022-12-19T04:09:02.631Z,99.99
2022-12-19T04:10:02.616Z,99.99
2022-12-19T04:11:02.608Z,99.99
2022-12-19T04:12:02.590Z,99.99
2022-12-19T04:13:02.591Z,99.99
2022-12-19T04:14:02.564Z,99.99
2022-12-19T04:15:02.564Z,99.99
2022-12-19T04:16:02.607Z,99.99
2022-12-19T04:17:02.552Z,99.99
2022-12-19T04:18:02.523Z,99.99
2022-12-19T04:19:02.524Z,99.99
2022-12-19T04:20:02.507Z,99.99
2022-12-19T04:21:02.522Z,99.99
2022-12-19T04:22:02.494Z,99.99
2022-12-19T04:23:02.507Z,99.99
2022-12-19T04:24:02.465Z,99.99
2022-12-19T04:25:02.474Z,99.99
2022-12-19T04:26:02.887Z,99.99
2022-12-19T04:27:02.446Z,99.99
2022-12-19T04:28:02.439Z,99.99
2022-12-19T04:29:02.435Z,99.99
2022-12-19T04:30:02.479Z,99.99
2022-12-19T04:31:02.463Z,99.99
2022-12-19T04:32:02.376Z,99.99
2022-12-19T04:33:02.424Z,99.99
2022-12-19T04:34:02.388Z,99.99
2022-12-19T04:35:02.361Z,99.99
2022-12-19T04:36:02.363Z,99.99
2022-12-19T04:37:02.355Z,99.99
2022-12-19T04:38:02.314Z,99.99
2022-12-19T04:39:02.319Z,99.99
2022-12-19T04:40:02.351Z,99.99
2022-12-19T04:41:02.296Z,99.99
2022-12-19T04:42:02.287Z,99.99
2022-12-19T04:43:02.280Z,99.99
2022-12-19T04:44:02.256Z,99.99
2022-12-19T04:45:02.252Z,99.99
2022-12-19T04:46:02.238Z,99.99
2022-12-19T04:47:03.410Z,99.99
2022-12-19T04:48:02.210Z,99.99
2022-12-19T04:49:02.232Z,99.99
2022-12-19T04:50:02.186Z,99.99
2022-12-19T04:51:02.197Z,99.99
2022-12-19T04:52:02.188Z,99.99
2022-12-19T04:53:02.180Z,99.99
2022-12-19T04:54:02.170Z,99.99
2022-12-19T04:55:02.195Z,99.99
2022-12-19T04:56:02.131Z,99.99
2022-12-19T04:57:02.129Z,99.99
2022-12-19T04:58:02.114Z,99.99
2022-12-19T04:59:02.113Z,99.99
2022-12-19T05:00:02.089Z,99.99
2022-12-19T05:01:02.093Z,99.99
2022-12-19T05:02:02.161Z,99.99
2022-12-19T05:03:02.208Z,99.99
2022-12-19T05:04:04.665Z,99.99
2022-12-19T05:05:02.040Z,99.99
2022-12-19T05:06:02.040Z,99.99
2022-12-19T05:07:02.026Z,99.99
2022-12-19T05:08:02.008Z,99.99
2022-12-19T05:09:02.010Z,99.99
2022-12-19T05:10:01.989Z,99.99
2022-12-19T05:11:01.997Z,99.99
2022-12-19T05:12:01.972Z,99.99
2022-12-19T05:13:01.961Z,99.99
2022-12-19T05:14:01.938Z,99.99
2022-12-19T05:15:01.952Z,99.99
2022-12-19T05:16:01.981Z,99.99
2022-12-19T05:17:01.929Z,99.99
2022-12-19T05:18:01.911Z,99.99
2022-12-19T05:19:01.898Z,99.99
2022-12-19T05:20:01.881Z,99.99
2022-12-19T05:21:01.883Z,99.99
2022-12-19T05:22:01.862Z,99.99
2022-12-19T05:23:05.030Z,99.99
2022-12-19T05:24:02.149Z,99.99
2022-12-19T05:25:01.855Z,99.99
2022-12-19T05:26:01.812Z,99.99
2022-12-19T05:27:01.871Z,99.99
2022-12-19T05:28:01.791Z,99.99
2022-12-19T05:29:01.802Z,99.99
2022-12-19T05:30:01.784Z,99.99
2022-12-19T05:31:01.829Z,99.99
2022-12-19T05:32:01.768Z,99.99
2022-12-19T05:33:01.763Z,99.99
2022-12-19T05:34:01.731Z,99.99
2022-12-19T05:35:01.737Z,99.99
2022-12-19T05:36:01.721Z,99.99
2022-12-19T05:37:01.709Z,99.99
2022-12-19T05:38:01.694Z,99.99
2022-12-19T05:39:01.713Z,99.99
2022-12-19T05:40:01.680Z,99.99
2022-12-19T05:41:01.662Z,99.99
2022-12-19T05:42:01.658Z,99.99
2022-12-19T05:43:01.642Z,99.99
2022-12-19T05:44:01.626Z,99.99
2022-12-19T05:45:01.673Z,99.99
2022-12-19T05:46:01.620Z,99.99
2022-12-19T05:47:01.694Z,99.99
2022-12-19T05:48:01.776Z,99.99
2022-12-19T05:49:01.584Z,99.99
2022-12-19T05:50:01.564Z,99.99
2022-12-19T05:51:01.572Z,99.99
2022-12-19T05:52:01.543Z,99.99
2022-12-19T05:53:01.563Z,99.99
2022-12-19T05:54:01.523Z,99.99
2022-12-19T05:55:01.521Z,99.99
2022-12-19T05:56:01.495Z,99.99
2022-12-19T05:57:01.524Z,99.99
2022-12-19T05:58:01.478Z,99.99
2022-12-19T05:59:01.484Z,99.99
2022-12-19T06:00:01.464Z,99.99
2022-12-19T06:01:02.267Z,99.99
2022-12-19T06:02:01.668Z,99.99
2022-12-19T06:03:02.379Z,99.99
2022-12-19T06:04:01.405Z,99.99
2022-12-19T06:05:01.415Z,99.99
2022-12-19T06:06:01.405Z,99.99
2022-12-19T06:07:01.389Z,99.99
2022-12-19T06:08:01.376Z,99.99
2022-12-19T06:09:01.374Z,99.99
2022-12-19T06:10:01.364Z,99.99
2022-12-19T06:11:01.343Z,99.99
2022-12-19T06:12:01.326Z,99.99
2022-12-19T06:13:02.137Z,99.99
2022-12-19T06:14:01.340Z,99.99
2022-12-19T06:15:01.313Z,99.99
2022-12-19T06:16:02.194Z,99.99
2022-12-19T06:17:01.286Z,99.99
2022-12-19T06:18:01.303Z,99.99
2022-12-19T06:19:01.475Z,99.99
2022-12-19T06:20:01.247Z,99.99
2022-12-19T06:21:01.280Z,99.99
2022-12-19T06:22:01.224Z,99.99
2022-12-19T06:23:02.024Z,99.99
2022-12-19T06:24:02.005Z,99.99
2022-12-19T06:25:01.207Z,99.99
2022-12-19T06:26:01.184Z,99.99
2022-12-19T06:27:01.178Z,99.99
2022-12-19T06:28:01.156Z,99.99
2022-12-19T06:29:01.960Z,99.99
2022-12-19T06:30:01.273Z,99.99
2022-12-19T06:31:01.141Z,99.99
2022-12-19T06:32:01.215Z,99.99
2022-12-19T06:33:01.907Z,99.99
2022-12-19T06:34:01.208Z,99.99
2022-12-19T06:35:05.054Z,99.99
2022-12-19T06:36:01.067Z,99.99
2022-12-19T06:37:05.179Z,99.99
2022-12-19T06:38:02.866Z,99.99
2022-12-19T06:39:01.305Z,99.99
2022-12-19T06:40:01.036Z,99.99
2022-12-19T06:41:01.036Z,99.99
2022-12-19T06:42:01.355Z,99.99
2022-12-19T06:43:01.815Z,99.99
2022-12-19T06:44:01.000Z,99.99
2022-12-19T06:45:00.978Z,99.99
2022-12-19T06:46:01.314Z,99.99
2022-12-19T06:47:00.981Z,99.99
2022-12-19T06:48:00.938Z,99.99
2022-12-19T06:49:00.961Z,99.99
2022-12-19T06:50:00.946Z,99.99
2022-12-19T06:51:00.918Z,99.99
2022-12-19T06:52:05.088Z,99.99
2022-12-19T06:53:01.911Z,99.99
2022-12-19T06:54:00.930Z,99.99
2022-12-19T06:55:00.891Z,99.99
2022-12-19T06:56:01.123Z,99.99
2022-12-19T06:57:01.039Z,99.99
2022-12-19T06:58:00.967Z,99.99
2022-12-19T06:59:00.851Z,99.99
2022-12-19T07:00:00.820Z,99.99
2022-12-19T07:01:00.876Z,99.99
2022-12-19T07:02:00.968Z,99.99
2022-12-19T07:03:00.855Z,99.99
2022-12-19T07:04:00.809Z,99.99
2022-12-19T07:05:00.804Z,99.99
2022-12-19T07:06:00.776Z,99.99
2022-12-19T07:07:00.820Z,99.99
2022-12-19T07:08:00.740Z,99.99
2022-12-19T07:09:00.839Z,99.99
2022-12-19T07:10:00.890Z,99.99
2022-12-19T07:11:00.762Z,99.99
2022-12-19T07:12:00.733Z,99.99
2022-12-19T07:13:00.730Z,99.99
2022-12-19T07:14:00.682Z,99.99
2022-12-19T07:15:01.504Z,99.99
2022-12-19T07:16:00.719Z,99.99
2022-12-19T07:17:01.618Z,99.99
2022-12-19T07:18:00.732Z,99.99
2022-12-19T07:19:01.411Z,99.99
2022-12-19T07:20:00.632Z,99.99
2022-12-19T07:21:00.615Z,99.99
2022-12-19T07:22:00.591Z,99.99
2022-12-19T07:23:00.582Z,99.99
2022-12-19T07:24:01.361Z,99.99
2022-12-19T07:25:00.576Z,99.99
2022-12-19T07:26:00.541Z,99.99
2022-12-19T07:27:00.575Z,99.99
2022-12-19T07:28:00.732Z,99.99
2022-12-19T07:29:00.526Z,99.99
2022-12-19T07:30:00.523Z,99.99
2022-12-19T07:31:00.574Z,99.99
2022-12-19T07:32:00.548Z,99.99
2022-12-19T07:33:00.563Z,99.99
2022-12-19T07:34:00.485Z,99.99
2022-12-19T07:35:00.494Z,99.99
2022-12-19T07:36:00.451Z,99.99
2022-12-19T07:37:00.439Z,99.99
2022-12-19T07:38:00.872Z,99.99
2022-12-19T07:39:00.424Z,99.99
2022-12-19T07:40:00.401Z,99.99
2022-12-19T07:41:00.439Z,99.99
2022-12-19T07:42:00.393Z,99.99
2022-12-19T07:43:00.385Z,99.99
2022-12-19T07:44:00.353Z,99.99
2022-12-19T07:45:00.370Z,99.99
2022-12-19T07:46:01.251Z,99.99
2022-12-19T07:47:00.334Z,99.99
2022-12-19T07:48:00.307Z,99.99
2022-12-19T07:49:00.305Z,99.99
2022-12-19T07:50:00.304Z,99.99
2022-12-19T07:51:01.075Z,99.99
2022-12-19T07:52:00.277Z,99.99
2022-12-19T07:53:00.267Z,99.99
2022-12-19T07:54:00.254Z,99.99
2022-12-19T07:55:00.289Z,99.99
2022-12-19T07:56:02.188Z,99.99
2022-12-19T07:57:00.226Z,99.99
2022-12-19T07:58:00.220Z,99.99
2022-12-19T07:59:00.217Z,99.99
2022-12-19T08:00:00.199Z,99.99
2022-12-19T08:01:00.320Z,99.99
2022-12-19T08:02:00.356Z,99.99
2022-12-19T08:03:00.279Z,99.99
2022-12-19T08:04:00.138Z,99.99
2022-12-19T08:05:00.167Z,99.99
2022-12-19T08:06:00.155Z,99.99
2022-12-19T08:07:00.107Z,99.99
2022-12-19T08:08:00.123Z,99.99
2022-12-19T08:09:00.132Z,99.99
2022-12-19T08:10:00.107Z,99.99
2022-12-19T08:11:00.080Z,99.99
2022-12-19T08:12:00.102Z,99.99
2022-12-19T08:13:00.458Z,99.99
2022-12-19T08:14:00.040Z,99.99
2022-12-19T08:15:00.046Z,99.99
2022-12-19T08:16:00.823Z,99.99
2022-12-19T08:18:01.016Z,99.99
2022-12-19T08:18:59.992Z,99.99
2022-12-19T08:19:59.991Z,99.99
2022-12-19T08:20:59.965Z,99.99
2022-12-19T08:21:59.977Z,99.99
2022-12-19T08:23:00.011Z,99.99
2022-12-19T08:24:00.040Z,99.99
2022-12-19T08:24:59.922Z,99.99
2022-12-19T08:25:59.921Z,99.99
2022-12-19T08:26:59.894Z,99.99
2022-12-19T08:27:59.895Z,99.99
2022-12-19T08:28:59.873Z,99.99
2022-12-19T08:29:59.872Z,99.99
2022-12-19T08:30:59.965Z,99.99
2022-12-19T08:31:59.853Z,99.99
2022-12-19T08:32:59.832Z,99.99
2022-12-19T08:33:59.830Z,99.99
2022-12-19T08:34:59.958Z,99.99
2022-12-19T08:35:59.943Z,99.99
2022-12-19T08:36:59.782Z,99.99
2022-12-19T08:37:59.804Z,99.99
2022-12-19T08:38:59.803Z,99.99
2022-12-19T08:39:59.785Z,99.99
2022-12-19T08:40:59.745Z,99.99
2022-12-19T08:41:59.751Z,99.99
2022-12-19T08:42:59.732Z,99.99
2022-12-19T08:43:59.732Z,99.99
2022-12-19T08:44:59.727Z,99.99
2022-12-19T08:45:59.773Z,99.99
2022-12-19T08:46:59.704Z,99.99
2022-12-19T08:48:00.648Z,99.99
2022-12-19T08:48:59.667Z,99.99
2022-12-19T08:49:59.676Z,99.99
2022-12-19T08:50:59.645Z,99.99
2022-12-19T08:51:59.644Z,99.99
2022-12-19T08:52:59.617Z,99.99
2022-12-19T08:53:59.631Z,99.99
2022-12-19T08:54:59.609Z,99.99
2022-12-19T08:55:59.611Z,99.99
2022-12-19T08:56:59.609Z,99.99
2022-12-19T08:57:59.592Z,99.99
2022-12-19T08:58:59.610Z,99.99
2022-12-19T08:59:59.633Z,99.99
2022-12-19T09:01:05.205Z,99.99
2022-12-19T09:02:01.093Z,99.99
2022-12-19T09:02:59.829Z,99.99
2022-12-19T09:04:39.617Z,99.95
2022-12-19T09:05:59.736Z,99.84
2022-12-19T09:06:07.920Z,99.84
2022-12-19T09:07:00.477Z,99.74
2022-12-19T09:07:59.493Z,99.69
2022-12-19T09:09:00.178Z,99.69
2022-12-19T09:09:59.458Z,99.59
2022-12-19T09:10:59.430Z,99.27
2022-12-19T09:11:59.444Z,99.27
2022-12-19T09:12:59.520Z,99.17
2022-12-19T09:13:59.437Z,99.07
2022-12-19T09:14:59.401Z,98.92
2022-12-19T09:15:59.405Z,98.82
2022-12-19T09:16:59.678Z,98.50
2022-12-19T09:17:59.751Z,98.39
2022-12-19T09:18:59.358Z,98.86
2022-12-19T09:19:59.351Z,99.07
2022-12-19T09:20:59.373Z,99.27
2022-12-19T09:22:00.133Z,99.38
2022-12-19T09:22:59.311Z,99.38
2022-12-19T09:24:05.220Z,99.17
2022-12-19T09:25:00.301Z,99.07
2022-12-19T09:25:59.303Z,98.92
2022-12-19T09:26:59.284Z,98.82
2022-12-19T09:28:26.889Z,98.71
2022-12-19T09:29:00.265Z,98.71
2022-12-19T09:29:59.236Z,98.60
2022-12-19T09:30:59.270Z,98.55
2022-12-19T09:31:59.286Z,98.55
2022-12-19T09:32:59.212Z,98.75
2022-12-19T09:33:59.219Z,99.07
2022-12-19T09:34:59.972Z,99.17
2022-12-19T09:35:59.176Z,99.13
2022-12-19T09:36:59.168Z,98.92
2022-12-19T09:38:00.537Z,98.92
2022-12-19T09:38:59.159Z,98.92
2022-12-19T09:39:59.432Z,98.60
2022-12-19T09:40:59.127Z,98.39
2022-12-19T09:41:59.123Z,98.39
2022-12-19T09:42:59.109Z,98.50
2022-12-19T09:43:59.312Z,98.71
2022-12-19T09:44:59.093Z,98.82
2022-12-19T09:45:59.134Z,98.60
2022-12-19T09:46:59.069Z,98.60
2022-12-19T09:47:59.107Z,98.39
2022-12-19T09:48:59.241Z,98.39
2022-12-19T09:49:59.038Z,98.14
2022-12-19T09:51:10.174Z,98.14
2022-12-19T09:52:00.025Z,97.94
2022-12-19T09:52:59.020Z,98.04
2022-12-19T09:53:58.990Z,98.04
2022-12-19T09:54:58.979Z,97.83
2022-12-19T09:55:58.993Z,97.94
2022-12-19T09:56:58.970Z,97.72
2022-12-19T09:57:58.964Z,97.68
2022-12-19T09:58:58.937Z,97.78
2022-12-19T09:59:58.937Z,97.58
2022-12-19T10:01:00.075Z,97.16
2022-12-19T10:01:59.931Z,97.16
2022-12-19T10:02:59.087Z,96.95
2022-12-19T10:03:58.928Z,97.06
2022-12-19T10:05:06.550Z,97.01
2022-12-19T10:07:10.428Z,96.70
2022-12-19T10:07:22.357Z,96.59
2022-12-19T10:08:10.525Z,96.59
2022-12-19T10:11:18.131Z,96.49
2022-12-19T10:12:35.689Z,96.39
2022-12-19T10:12:45.620Z,95.62
2022-12-19T10:12:47.551Z,96.03
2022-12-19T10:13:01.705Z,95.83
2022-12-19T10:13:59.783Z,95.62
2022-12-19T10:14:58.769Z,95.62
2022-12-19T10:16:00.256Z,95.62
2022-12-19T10:17:23.105Z,95.83
2022-12-19T10:17:59.761Z,95.40
2022-12-19T10:18:58.745Z,95.72
2022-12-19T10:19:58.733Z,95.83
2022-12-19T10:20:58.705Z,95.83
2022-12-19T10:22:17.869Z,96.03
2022-12-19T10:22:59.693Z,96.03
2022-12-19T10:23:58.689Z,96.03
2022-12-19T10:25:09.541Z,95.83
2022-12-19T10:25:59.697Z,95.83
2022-12-19T10:26:58.667Z,95.20
2022-12-19T10:28:00.466Z,94.84
2022-12-19T10:28:59.437Z,94.95
2022-12-19T10:29:58.636Z,95.15
2022-12-19T10:31:01.513Z,95.15
2022-12-19T10:31:59.819Z,94.90
2022-12-19T10:32:58.666Z,94.55
2022-12-19T10:33:58.871Z,93.68
2022-12-19T10:34:58.560Z,92.80
2022-12-19T10:36:02.109Z,90.48
2022-12-19T10:37:19.766Z,90.02
2022-12-19T10:38:00.052Z,88.11
2022-12-19T10:38:58.561Z,88.32
2022-12-19T10:39:58.532Z,87.45
2022-12-19T10:40:58.531Z,87.55
2022-12-19T10:41:59.340Z,85.75
2022-12-19T10:42:58.480Z,84.92
2022-12-19T10:43:58.516Z,85.55
2022-12-19T10:44:58.476Z,85.65
2022-12-19T10:45:58.507Z,85.50
2022-12-19T10:46:58.521Z,85.05
2022-12-19T10:47:58.466Z,83.50
2022-12-19T10:48:58.422Z,81.91
2022-12-19T10:50:02.521Z,81.52
2022-12-19T10:51:00.645Z,79.87
2022-12-19T10:51:59.399Z,79.80
2022-12-19T10:52:58.361Z,78.31
2022-12-19T10:53:58.408Z,77.08
2022-12-19T10:54:59.173Z,78.94
2022-12-19T10:55:58.350Z,78.73
2022-12-19T10:56:58.339Z,79.52
2022-12-19T10:57:58.446Z,78.80
2022-12-19T10:58:58.324Z,77.45
2022-12-19T10:59:58.348Z,77.28
2022-12-19T11:00:58.293Z,78.45
2022-12-19T11:02:01.232Z,78.28
2022-12-19T11:02:58.475Z,79.25
2022-12-19T11:03:58.372Z,80.43
2022-12-19T11:04:58.318Z,80.43
2022-12-19T11:05:58.840Z,80.63
2022-12-19T11:06:58.227Z,80.63
2022-12-19T11:07:58.227Z,80.53
2022-12-19T11:08:58.242Z,80.94
2022-12-19T11:10:29.820Z,80.66
2022-12-19T11:13:03.125Z,80.11
2022-12-19T11:15:17.090Z,79.04
2022-12-19T11:17:14.378Z,78.28
2022-12-19T11:17:50.221Z,77.66
2022-12-19T11:20:39.304Z,79.69
2022-12-19T11:20:52.220Z,78.01
2022-12-19T11:24:23.766Z,80.62
2022-12-19T11:26:16.972Z,80.90
2022-12-19T11:28:40.393Z,80.00
2022-12-19T11:29:18.284Z,82.35
2022-12-19T11:29:26.986Z,83.14
2022-12-19T11:29:31.261Z,82.73
2022-12-19T11:29:45.131Z,82.15
2022-12-19T11:30:35.456Z,81.84
2022-12-19T11:30:36.953Z,82.18
2022-12-19T11:30:43.549Z,82.66
2022-12-19T11:30:46.251Z,83.07
2022-12-19T11:30:46.431Z,82.62
2022-12-19T11:30:47.268Z,82.10
2022-12-19T11:32:14.242Z,82.89
2022-12-19T11:32:59.023Z,80.32
2022-12-19T11:33:58.727Z,80.66
2022-12-19T11:34:57.922Z,80.97
2022-12-19T11:35:57.922Z,81.18
2022-12-19T11:36:58.711Z,82.00
2022-12-19T11:37:58.555Z,83.14
2022-12-19T11:38:57.928Z,81.94
2022-12-19T11:39:57.885Z,83.07
2022-12-19T11:40:58.677Z,80.80
2022-12-19T11:41:57.862Z,81.42
2022-12-19T11:43:41.502Z,81.63
2022-12-19T11:43:58.952Z,82.76
2022-12-19T11:44:57.884Z,81.56
2022-12-19T11:45:58.613Z,82.70
2022-12-19T11:46:58.614Z,83.22
2022-12-19T11:47:57.785Z,82.90
2022-12-19T11:48:57.778Z,82.95
2022-12-19T11:49:58.577Z,83.87
2022-12-19T11:50:57.784Z,84.08
2022-12-19T11:51:57.754Z,83.67
2022-12-19T11:53:09.383Z,82.88
2022-12-19T11:53:58.729Z,84.53
2022-12-19T11:54:57.727Z,85.11
2022-12-19T11:55:57.747Z,84.91
2022-12-19T11:56:57.848Z,85.11
2022-12-19T11:57:57.696Z,85.28
2022-12-19T11:58:57.672Z,84.19
2022-12-19T12:00:04.491Z,84.08
2022-12-19T12:00:58.752Z,84.39
2022-12-19T12:01:57.709Z,84.64
2022-12-19T12:02:57.672Z,84.74
2022-12-19T12:04:01.943Z,85.36
2022-12-19T12:04:58.650Z,85.68
2022-12-19T12:05:57.619Z,85.57
2022-12-19T12:06:57.691Z,85.78
2022-12-19T12:08:58.519Z,86.29
2022-12-19T12:11:58.582Z,85.88
2022-12-19T12:12:05.016Z,85.99
2022-12-19T12:14:54.673Z,86.09
2022-12-19T12:21:17.172Z,85.28
2022-12-19T12:22:55.063Z,86.36
2022-12-19T12:23:57.216Z,86.25
2022-12-19T12:25:53.664Z,85.28
2022-12-19T12:27:43.686Z,85.60
2022-12-19T12:28:47.967Z,84.56
2022-12-19T12:29:34.045Z,85.32
2022-12-19T12:29:35.381Z,84.87
2022-12-19T12:31:07.036Z,85.84
2022-12-19T12:31:15.836Z,86.05
2022-12-19T12:31:28.209Z,85.63
2022-12-19T12:31:44.390Z,86.52
2022-12-19T12:31:47.724Z,85.76
2022-12-19T12:31:49.892Z,84.89
2022-12-19T12:31:50.266Z,84.07
2022-12-19T12:31:50.267Z,86.07
2022-12-19T12:31:53.469Z,86.83
2022-12-19T12:31:54.266Z,83.86
2022-12-19T12:32:02.060Z,86.77
2022-12-19T12:32:05.066Z,86.57
2022-12-19T12:35:21.480Z,83.72
2022-12-19T12:35:30.228Z,83.97
2022-12-19T12:35:40.780Z,83.48
2022-12-19T12:35:48.780Z,84.23
2022-12-19T12:38:59.724Z,81.34
2022-12-19T12:39:57.229Z,81.03
2022-12-19T12:40:57.242Z,80.90
2022-12-19T12:41:57.199Z,81.82
2022-12-19T12:42:57.210Z,81.76
2022-12-19T12:43:57.183Z,83.51
2022-12-19T12:44:57.184Z,83.93
2022-12-19T12:45:57.238Z,83.41
2022-12-19T12:46:57.194Z,83.51
2022-12-19T12:47:57.160Z,83.97
2022-12-19T12:48:57.147Z,84.38
2022-12-19T12:49:57.120Z,84.28
2022-12-19T12:50:57.124Z,84.79
2022-12-19T12:51:57.105Z,85.10
2022-12-19T12:52:57.107Z,85.10
2022-12-19T12:53:57.081Z,84.89
2022-12-19T12:54:57.087Z,85.72
2022-12-19T12:55:57.073Z,85.00
2022-12-19T12:56:57.053Z,85.72
2022-12-19T12:57:57.036Z,86.44